Stolt Ebony — MBAU9 — position and weather

sailwx.info

Track history (hours):
 
Tides and Currents Weather Stations Pressure Air Temp Water Temp Dewpoint Dewpoint Depression Visibility Wind Speed Wind Dir Waves Ship Positions

Stolt Ebony

Last reported at 2017-Dec-08 20:39 UTC. Time now 2017-Dec-17 17:57 UTC.
Position S 24°23' W 046°06'.
Warning: this ship's position is 8 days out of date.

Length 185 m; draft 7.5 m.

Type: Tanker. MMSI: 232008101.

Date/timePositionNaut miles runAvg speedWind from/ knotsBaromVisibWave heightAir tempDewpointWater temp
2017-Dec-08 20:39S 24°23' W 046°06'314.0
2017-Dec-08 20:25S 24°23' W 046°10'512.1
2017-Dec-08 19:58S 24°20' W 046°15'613.5
2017-Dec-08 19:30S 24°16' W 046°20'713.2
2017-Dec-08 19:00S 24°09' W 046°22'612.1
2017-Dec-08 18:30S 24°03' W 046°22'5 9.3
2017-Dec-08 18:00S 23°60' W 046°19'3 5.2
2017-Dec-08 17:29S 23°57' W 046°19'1 0.0
2017-Dec-07 13:21S 23°56' W 046°19'3 7.2
2017-Dec-07 13:00S 23°58' W 046°17'3 6.6
2017-Dec-07 12:30S 24°01' W 046°20'3 7.1
2017-Dec-07 12:00S 24°04' W 046°22'3 6.9
2017-Dec-07 11:30S 24°07' W 046°23'3 6.3
2017-Dec-07 11:00S 24°10' W 046°22'4 7.7
2017-Dec-07 10:30S 24°13' W 046°19'1 2.1
2017-Dec-07 09:58S 24°14' W 046°18'0 0.0
2017-Dec-07 09:28S 24°14' W 046°18'0 0.0
2017-Dec-07 08:58S 24°14' W 046°18'0 0.0
2017-Dec-07 08:28S 24°14' W 046°18'0 0.0
2017-Dec-07 07:58S 24°14' W 046°18'0 0.0
2017-Dec-07 07:28S 24°14' W 046°18'0 0.0
2017-Dec-07 06:58S 24°14' W 046°18'0 0.0
2017-Dec-07 06:25S 24°14' W 046°18'0 0.0
2017-Dec-07 05:52S 24°14' W 046°18'0 0.0
2017-Dec-07 05:28S 24°14' W 046°18'0 0.0
2017-Dec-07 04:58S 24°14' W 046°18'0 0.0
2017-Dec-07 04:19S 24°14' W 046°18'0 0.0
2017-Dec-07 03:58S 24°14' W 046°18'0 0.0
2017-Dec-07 03:28S 24°14' W 046°18'0 0.0
2017-Dec-07 02:58S 24°14' W 046°18'0 0.0
2017-Dec-07 02:28S 24°14' W 046°18'0 0.0
2017-Dec-07 01:58S 24°14' W 046°18'0 0.0
2017-Dec-07 01:28S 24°14' W 046°18'0 0.0
2017-Dec-07 00:52S 24°14' W 046°18'0 0.0
2017-Dec-07 00:25S 24°14' W 046°18'0 0.0
2017-Dec-06 23:55S 24°14' W 046°18'0 0.0
2017-Dec-06 23:28S 24°14' W 046°18'0 0.0
2017-Dec-06 22:58S 24°14' W 046°18'0 0.0
2017-Dec-06 22:28S 24°14' W 046°18'0 0.0
2017-Dec-06 21:58S 24°14' W 046°18'0 0.0
2017-Dec-06 21:22S 24°14' W 046°18'0 0.0
2017-Dec-06 20:55S 24°14' W 046°18'  
2017-Dec-04 10:21S 24°14' W 046°18'0 0.0
2017-Dec-04 09:57S 24°14' W 046°18'0 0.0
2017-Dec-04 09:15S 24°14' W 046°18'0 0.0
2017-Dec-04 08:57S 24°14' W 046°18'0 0.0
2017-Dec-04 08:27S 24°14' W 046°18'0 0.0
2017-Dec-04 07:57S 24°14' W 046°18'0 0.0
2017-Dec-04 07:30S 24°14' W 046°18'0 0.0
2017-Dec-04 06:57S 24°14' W 046°18'0 0.0
2017-Dec-04 06:27S 24°14' W 046°18'0 0.0
2017-Dec-04 05:57S 24°14' W 046°18'0 0.0
2017-Dec-04 05:27S 24°14' W 046°18'0 0.0
2017-Dec-04 04:51S 24°14' W 046°18'0 0.0
2017-Dec-04 04:27S 24°14' W 046°18'0 0.0
2017-Dec-04 04:00S 24°14' W 046°18'0 0.0
2017-Dec-04 03:27S 24°14' W 046°18'0 0.0
2017-Dec-04 02:57S 24°14' W 046°18'0 0.0
2017-Dec-04 02:27S 24°14' W 046°18'0 0.0
2017-Dec-04 02:00S 24°14' W 046°18'0 0.0
2017-Dec-04 01:27S 24°14' W 046°18'0 0.0
2017-Dec-04 01:00S 24°14' W 046°18'0 0.0
2017-Dec-04 00:30S 24°14' W 046°18'0 0.0
2017-Dec-04 00:00S 24°14' W 046°18'0 0.0
2017-Dec-03 23:27S 24°14' W 046°18'0 0.0
2017-Dec-03 23:00S 24°14' W 046°18'0 0.0
2017-Dec-03 22:27S 24°14' W 046°18'0 0.0
2017-Dec-03 22:00S 24°14' W 046°18'0 0.0
2017-Dec-03 21:30S 24°14' W 046°18'0 0.0
2017-Dec-03 20:51S 24°14' W 046°18'0 0.0
2017-Dec-03 20:30S 24°14' W 046°18'0 0.0
2017-Dec-03 20:00S 24°14' W 046°18'0 0.0
2017-Dec-03 19:24S 24°14' W 046°18'0 0.0
2017-Dec-03 19:00S 24°14' W 046°18'0 0.0
2017-Dec-03 18:30S 24°14' W 046°18'0 0.0
2017-Dec-03 18:00S 24°14' W 046°18'0 0.0
2017-Dec-03 17:30S 24°14' W 046°18'0 0.0
2017-Dec-03 16:57S 24°14' W 046°18'0 0.0
2017-Dec-03 16:30S 24°14' W 046°18'0 0.0
2017-Dec-03 16:00S 24°14' W 046°18'0 0.0
2017-Dec-03 15:30S 24°14' W 046°18'0 0.0
2017-Dec-03 15:00S 24°14' W 046°18'0 0.0
2017-Dec-03 14:27S 24°14' W 046°18'0 0.0
2017-Dec-03 13:57S 24°14' W 046°18'0 0.0
2017-Dec-03 13:30S 24°14' W 046°18'0 0.0
2017-Dec-03 12:51S 24°14' W 046°18'0 0.0
2017-Dec-03 12:30S 24°14' W 046°18'0 0.0
2017-Dec-03 12:00S 24°14' W 046°18'0 0.0
2017-Dec-03 11:24S 24°14' W 046°18'0 0.0
2017-Dec-03 10:57S 24°14' W 046°18'0 0.0
2017-Dec-03 10:30S 24°14' W 046°18'0 0.0
2017-Dec-03 10:00S 24°14' W 046°18'0 0.0
2017-Dec-03 09:30S 24°14' W 046°18'0 0.0
2017-Dec-03 09:00S 24°14' W 046°18'0 0.0
2017-Dec-03 08:30S 24°14' W 046°18'0 0.0
2017-Dec-03 07:57S 24°14' W 046°18'0 0.0
2017-Dec-03 07:30S 24°14' W 046°18'0 0.0
2017-Dec-03 07:00S 24°14' W 046°18'0 0.0
2017-Dec-03 06:21S 24°14' W 046°18'0 0.0
2017-Dec-03 06:00S 24°14' W 046°18'0 0.0
2017-Dec-03 05:15S 24°14' W 046°18'0 0.1
2017-Dec-03 05:00S 24°14' W 046°18'0 0.0
2017-Dec-03 04:27S 24°14' W 046°18'0 0.0
2017-Dec-03 03:57S 24°14' W 046°18'0 0.0
2017-Dec-03 03:27S 24°14' W 046°18'0 0.0
2017-Dec-03 03:00S 24°14' W 046°18'0 0.0
2017-Dec-03 02:27S 24°14' W 046°18'0 0.0
2017-Dec-03 01:57S 24°14' W 046°18'0 0.0
2017-Dec-03 01:30S 24°14' W 046°18'0 0.0
2017-Dec-03 00:57S 24°14' W 046°18'0 0.0
2017-Dec-03 00:27S 24°14' W 046°18'0 0.0
2017-Dec-03 00:00S 24°14' W 046°18'0 0.0
2017-Dec-02 23:27S 24°14' W 046°18'0 0.0
2017-Dec-02 22:57S 24°14' W 046°18'0 0.0
2017-Dec-02 22:30S 24°14' W 046°18'0 0.0
2017-Dec-02 22:00S 24°14' W 046°18'0 0.0
2017-Dec-02 21:30S 24°14' W 046°18'0 0.0
2017-Dec-02 20:51S 24°14' W 046°18'0 0.0
2017-Dec-02 20:30S 24°14' W 046°18'0 0.0
2017-Dec-02 20:00S 24°14' W 046°18'0 0.0
2017-Dec-02 19:30S 24°14' W 046°18'0 0.0
2017-Dec-02 18:57S 24°14' W 046°18'0 0.0
2017-Dec-02 18:30S 24°14' W 046°18'0 0.0
2017-Dec-02 18:00S 24°14' W 046°18'0 0.0
2017-Dec-02 17:27S 24°14' W 046°18'0 0.0
2017-Dec-02 17:00S 24°14' W 046°18'0 0.0
2017-Dec-02 16:30S 24°14' W 046°18'0 0.0
2017-Dec-02 15:57S 24°14' W 046°18'0 0.0
2017-Dec-02 15:27S 24°14' W 046°18'0 0.0
2017-Dec-02 15:00S 24°14' W 046°18'0 0.0
2017-Dec-02 14:09S 24°14' W 046°18'0 0.0
2017-Dec-02 13:57S 24°14' W 046°18'0 0.0
2017-Dec-02 13:27S 24°14' W 046°18'0 0.0
2017-Dec-02 12:57S 24°14' W 046°18'0 0.0
2017-Dec-02 12:30S 24°14' W 046°18'0 0.0
2017-Dec-02 12:00S 24°14' W 046°18'0 0.0
2017-Dec-02 11:30S 24°14' W 046°18'0 0.0
2017-Dec-02 11:00S 24°14' W 046°18'0 0.0
2017-Dec-02 10:27S 24°14' W 046°18'0 0.0
2017-Dec-02 09:51S 24°14' W 046°18'0 0.0
2017-Dec-02 09:30S 24°14' W 046°18'0 0.0
2017-Dec-02 09:00S 24°14' W 046°18'0 0.0
2017-Dec-02 08:30S 24°14' W 046°18'0 0.0
2017-Dec-02 07:57S 24°14' W 046°18'0 0.0
2017-Dec-02 07:30S 24°14' W 046°18'0 0.0
2017-Dec-02 06:57S 24°14' W 046°18'0 0.0
2017-Dec-02 06:27S 24°14' W 046°18'0 0.0
2017-Dec-02 05:54S 24°14' W 046°18'0 0.0
2017-Dec-02 05:27S 24°14' W 046°18'0 0.0
2017-Dec-02 04:57S 24°14' W 046°18'0 0.0
2017-Dec-02 04:27S 24°14' W 046°18'0 0.0
2017-Dec-02 04:00S 24°14' W 046°18'0 0.0
2017-Dec-02 03:30S 24°14' W 046°18'0 0.0
2017-Dec-02 03:00S 24°14' W 046°18'0 0.0
2017-Dec-02 02:30S 24°14' W 046°18'0 0.0
2017-Dec-02 01:54S 24°14' W 046°18'0 0.0
2017-Dec-02 01:24S 24°14' W 046°18'0 0.0
2017-Dec-02 00:57S 24°14' W 046°18'0 0.0
2017-Dec-02 00:30S 24°14' W 046°18'0 0.0
2017-Dec-02 00:00S 24°14' W 046°18'0 0.0
2017-Dec-01 23:30S 24°14' W 046°18'0 0.0
2017-Dec-01 23:00S 24°14' W 046°18'0 0.0
2017-Dec-01 22:30S 24°14' W 046°18'0 0.0
2017-Dec-01 21:57S 24°14' W 046°18'0 0.0
2017-Dec-01 21:21S 24°14' W 046°18'0 0.0
2017-Dec-01 20:51S 24°14' W 046°18'0 0.0
2017-Dec-01 20:27S 24°14' W 046°18'0 0.0
2017-Dec-01 20:00S 24°14' W 046°18'0 0.0
2017-Dec-01 19:27S 24°14' W 046°18'0 0.0
2017-Dec-01 18:57S 24°14' W 046°18'0 0.0
2017-Dec-01 18:30S 24°14' W 046°18'0 0.0
2017-Dec-01 17:57S 24°14' W 046°18'0 0.0
2017-Dec-01 17:30S 24°14' W 046°18'0 0.0
2017-Dec-01 16:57S 24°14' W 046°18'0 0.0
2017-Dec-01 16:27S 24°14' W 046°18'0 0.0
2017-Dec-01 15:57S 24°14' W 046°18'0 0.0
2017-Dec-01 15:15S 24°14' W 046°18'0 0.0
2017-Dec-01 15:00S 24°14' W 046°18'0 0.0
2017-Dec-01 14:21S 24°14' W 046°18'0 0.0
2017-Dec-01 13:57S 24°14' W 046°18'0 0.0
2017-Dec-01 13:27S 24°14' W 046°18'0 0.0
2017-Dec-01 13:00S 24°14' W 046°18'0 0.0
2017-Dec-01 12:27S 24°14' W 046°18'0 0.0
2017-Dec-01 12:00S 24°14' W 046°18'0 0.0
2017-Dec-01 11:27S 24°14' W 046°18'0 0.0
2017-Dec-01 10:57S 24°14' W 046°18'0 0.0
2017-Dec-01 10:30S 24°14' W 046°18'0 0.0
2017-Dec-01 09:57S 24°14' W 046°18'0 0.0
2017-Dec-01 09:27S 24°14' W 046°18'0 0.0
2017-Dec-01 08:57S 24°14' W 046°18'0 0.0
2017-Dec-01 08:30S 24°14' W 046°18'0 0.0
2017-Dec-01 07:57S 24°14' W 046°18'0 0.0
2017-Dec-01 07:30S 24°14' W 046°18'0 0.0
2017-Dec-01 06:57S 24°14' W 046°18'0 0.0
2017-Dec-01 06:30S 24°14' W 046°18'0 0.0
2017-Dec-01 05:54S 24°14' W 046°18'0 0.0
2017-Dec-01 05:27S 24°14' W 046°18'0 0.0
2017-Dec-01 05:00S 24°14' W 046°18'0 0.0
2017-Dec-01 04:27S 24°14' W 046°18'0 0.0
2017-Dec-01 04:00S 24°14' W 046°18'0 0.0
2017-Dec-01 03:27S 24°14' W 046°18'0 0.0
2017-Dec-01 03:00S 24°14' W 046°18'0 0.0
2017-Dec-01 02:27S 24°14' W 046°18'0 0.0
2017-Dec-01 01:57S 24°14' W 046°18'0 0.0
2017-Dec-01 01:30S 24°14' W 046°18'0 0.0
2017-Dec-01 00:57S 24°14' W 046°18'0 0.0
2017-Dec-01 00:27S 24°14' W 046°18'0 0.0
2017-Dec-01 00:00S 24°14' W 046°18'0 0.0
2017-Nov-30 23:24S 24°14' W 046°18'0 0.0
2017-Nov-30 23:00S 24°14' W 046°18'0 0.0
2017-Nov-30 22:21S 24°14' W 046°18'0 0.0
2017-Nov-30 22:00S 24°14' W 046°18'0 0.0
2017-Nov-30 21:30S 24°14' W 046°18'0 0.0
2017-Nov-30 20:57S 24°14' W 046°18'0 0.0
2017-Nov-30 20:15S 24°14' W 046°18'0 0.1
2017-Nov-30 19:57S 24°14' W 046°18'0 0.0
2017-Nov-30 19:30S 24°14' W 046°18'0 0.0
2017-Nov-30 19:00S 24°14' W 046°18'0 0.1
2017-Nov-30 18:27S 24°14' W 046°18'0 0.0
2017-Nov-30 17:57S 24°14' W 046°18'0 0.0
2017-Nov-30 17:27S 24°14' W 046°18'0 0.0
2017-Nov-30 16:57S 24°14' W 046°18'0 0.0
2017-Nov-30 16:30S 24°14' W 046°18'0 0.0
2017-Nov-30 15:57S 24°14' W 046°18'0 0.1
2017-Nov-30 15:27S 24°14' W 046°18'0 0.1
2017-Nov-30 15:00S 24°14' W 046°18'0 0.0
2017-Nov-30 14:24S 24°14' W 046°18'0 0.0
2017-Nov-30 13:57S 24°14' W 046°18'0 0.0
2017-Nov-30 13:27S 24°14' W 046°18'0 0.0
2017-Nov-30 12:57S 24°14' W 046°18'0 0.0
2017-Nov-30 12:21S 24°14' W 046°18'0 0.0
2017-Nov-30 11:57S 24°14' W 046°18'0 0.0
2017-Nov-30 11:30S 24°14' W 046°18'0 0.0
2017-Nov-30 11:00S 24°14' W 046°18'0 0.0
2017-Nov-30 10:27S 24°14' W 046°18'0 0.0
2017-Nov-30 09:57S 24°14' W 046°18'0 0.0
2017-Nov-30 09:30S 24°14' W 046°18'0 0.0
2017-Nov-30 09:00S 24°14' W 046°18'0 0.0
2017-Nov-30 08:27S 24°14' W 046°18'0 0.0
2017-Nov-30 08:00S 24°14' W 046°18'0 0.0
2017-Nov-30 07:15S 24°14' W 046°18'0 0.0
2017-Nov-30 07:00S 24°14' W 046°18'0 0.0
2017-Nov-30 06:30S 24°14' W 046°18'0 0.2
2017-Nov-30 05:58S 24°14' W 046°18'2 4.2
2017-Nov-30 05:30S 24°16' W 046°18'510.2
2017-Nov-30 05:00S 24°20' W 046°15'612.1
2017-Nov-30 04:30S 24°24' W 046°10'  
Track history (hours):
 
Tides and Currents Weather Stations Pressure Air Temp Water Temp Dewpoint Dewpoint Depression Visibility Wind Speed Wind Dir Waves Ship Positions

Stolt Ebony

Last reported at 2017-Dec-08 20:39 UTC. Time now 2017-Dec-17 17:57 UTC.
Position S 24°23' W 046°06'.
Warning: this ship's position is 8 days out of date.

Length 185 m; draft 7.5 m.

Type: Tanker. MMSI: 232008101.

Date/timePositionNaut miles runAvg speedWind from/ knotsBaromVisibWave heightAir tempDewpointWater temp
2017-Dec-08 20:39S 24°23' W 046°06'314.0
2017-Dec-08 20:25S 24°23' W 046°10'512.1
2017-Dec-08 19:58S 24°20' W 046°15'613.5
2017-Dec-08 19:30S 24°16' W 046°20'713.2
2017-Dec-08 19:00S 24°09' W 046°22'612.1
2017-Dec-08 18:30S 24°03' W 046°22'5 9.3
2017-Dec-08 18:00S 23°60' W 046°19'3 5.2
2017-Dec-08 17:29S 23°57' W 046°19'1 0.0
2017-Dec-07 13:21S 23°56' W 046°19'3 7.2
2017-Dec-07 13:00S 23°58' W 046°17'3 6.6
2017-Dec-07 12:30S 24°01' W 046°20'3 7.1
2017-Dec-07 12:00S 24°04' W 046°22'3 6.9
2017-Dec-07 11:30S 24°07' W 046°23'3 6.3
2017-Dec-07 11:00S 24°10' W 046°22'4 7.7
2017-Dec-07 10:30S 24°13' W 046°19'1 2.1
2017-Dec-07 09:58S 24°14' W 046°18'0 0.0
2017-Dec-07 09:28S 24°14' W 046°18'0 0.0
2017-Dec-07 08:58S 24°14' W 046°18'0 0.0
2017-Dec-07 08:28S 24°14' W 046°18'0 0.0
2017-Dec-07 07:58S 24°14' W 046°18'0 0.0
2017-Dec-07 07:28S 24°14' W 046°18'0 0.0
2017-Dec-07 06:58S 24°14' W 046°18'0 0.0
2017-Dec-07 06:25S 24°14' W 046°18'0 0.0
2017-Dec-07 05:52S 24°14' W 046°18'0 0.0
2017-Dec-07 05:28S 24°14' W 046°18'0 0.0
2017-Dec-07 04:58S 24°14' W 046°18'0 0.0
2017-Dec-07 04:19S 24°14' W 046°18'0 0.0
2017-Dec-07 03:58S 24°14' W 046°18'0 0.0
2017-Dec-07 03:28S 24°14' W 046°18'0 0.0
2017-Dec-07 02:58S 24°14' W 046°18'0 0.0
2017-Dec-07 02:28S 24°14' W 046°18'0 0.0
2017-Dec-07 01:58S 24°14' W 046°18'0 0.0
2017-Dec-07 01:28S 24°14' W 046°18'0 0.0
2017-Dec-07 00:52S 24°14' W 046°18'0 0.0
2017-Dec-07 00:25S 24°14' W 046°18'0 0.0
2017-Dec-06 23:55S 24°14' W 046°18'0 0.0
2017-Dec-06 23:28S 24°14' W 046°18'0 0.0
2017-Dec-06 22:58S 24°14' W 046°18'0 0.0
2017-Dec-06 22:28S 24°14' W 046°18'0 0.0
2017-Dec-06 21:58S 24°14' W 046°18'0 0.0
2017-Dec-06 21:22S 24°14' W 046°18'0 0.0
2017-Dec-06 20:55S 24°14' W 046°18'  
2017-Dec-04 10:21S 24°14' W 046°18'0 0.0
2017-Dec-04 09:57S 24°14' W 046°18'0 0.0
2017-Dec-04 09:15S 24°14' W 046°18'0 0.0
2017-Dec-04 08:57S 24°14' W 046°18'0 0.0
2017-Dec-04 08:27S 24°14' W 046°18'0 0.0
2017-Dec-04 07:57S 24°14' W 046°18'0 0.0
2017-Dec-04 07:30S 24°14' W 046°18'0 0.0
2017-Dec-04 06:57S 24°14' W 046°18'0 0.0
2017-Dec-04 06:27S 24°14' W 046°18'0 0.0
2017-Dec-04 05:57S 24°14' W 046°18'0 0.0
2017-Dec-04 05:27S 24°14' W 046°18'0 0.0
2017-Dec-04 04:51S 24°14' W 046°18'0 0.0
2017-Dec-04 04:27S 24°14' W 046°18'0 0.0
2017-Dec-04 04:00S 24°14' W 046°18'0 0.0
2017-Dec-04 03:27S 24°14' W 046°18'0 0.0
2017-Dec-04 02:57S 24°14' W 046°18'0 0.0
2017-Dec-04 02:27S 24°14' W 046°18'0 0.0
2017-Dec-04 02:00S 24°14' W 046°18'0 0.0
2017-Dec-04 01:27S 24°14' W 046°18'0 0.0
2017-Dec-04 01:00S 24°14' W 046°18'0 0.0
2017-Dec-04 00:30S 24°14' W 046°18'0 0.0
2017-Dec-04 00:00S 24°14' W 046°18'0 0.0
2017-Dec-03 23:27S 24°14' W 046°18'0 0.0
2017-Dec-03 23:00S 24°14' W 046°18'0 0.0
2017-Dec-03 22:27S 24°14' W 046°18'0 0.0
2017-Dec-03 22:00S 24°14' W 046°18'0 0.0
2017-Dec-03 21:30S 24°14' W 046°18'0 0.0
2017-Dec-03 20:51S 24°14' W 046°18'0 0.0
2017-Dec-03 20:30S 24°14' W 046°18'0 0.0
2017-Dec-03 20:00S 24°14' W 046°18'0 0.0
2017-Dec-03 19:24S 24°14' W 046°18'0 0.0
2017-Dec-03 19:00S 24°14' W 046°18'0 0.0
2017-Dec-03 18:30S 24°14' W 046°18'0 0.0
2017-Dec-03 18:00S 24°14' W 046°18'0 0.0
2017-Dec-03 17:30S 24°14' W 046°18'0 0.0
2017-Dec-03 16:57S 24°14' W 046°18'0 0.0
2017-Dec-03 16:30S 24°14' W 046°18'0 0.0
2017-Dec-03 16:00S 24°14' W 046°18'0 0.0
2017-Dec-03 15:30S 24°14' W 046°18'0 0.0
2017-Dec-03 15:00S 24°14' W 046°18'0 0.0
2017-Dec-03 14:27S 24°14' W 046°18'0 0.0
2017-Dec-03 13:57S 24°14' W 046°18'0 0.0
2017-Dec-03 13:30S 24°14' W 046°18'0 0.0
2017-Dec-03 12:51S 24°14' W 046°18'0 0.0
2017-Dec-03 12:30S 24°14' W 046°18'0 0.0
2017-Dec-03 12:00S 24°14' W 046°18'0 0.0
2017-Dec-03 11:24S 24°14' W 046°18'0 0.0
2017-Dec-03 10:57S 24°14' W 046°18'0 0.0
2017-Dec-03 10:30S 24°14' W 046°18'0 0.0
2017-Dec-03 10:00S 24°14' W 046°18'0 0.0
2017-Dec-03 09:30S 24°14' W 046°18'0 0.0
2017-Dec-03 09:00S 24°14' W 046°18'0 0.0
2017-Dec-03 08:30S 24°14' W 046°18'0 0.0
2017-Dec-03 07:57S 24°14' W 046°18'0 0.0
2017-Dec-03 07:30S 24°14' W 046°18'0 0.0
2017-Dec-03 07:00S 24°14' W 046°18'0 0.0
2017-Dec-03 06:21S 24°14' W 046°18'0 0.0
2017-Dec-03 06:00S 24°14' W 046°18'0 0.0
2017-Dec-03 05:15S 24°14' W 046°18'0 0.1
2017-Dec-03 05:00S 24°14' W 046°18'0 0.0
2017-Dec-03 04:27S 24°14' W 046°18'0 0.0
2017-Dec-03 03:57S 24°14' W 046°18'0 0.0
2017-Dec-03 03:27S 24°14' W 046°18'0 0.0
2017-Dec-03 03:00S 24°14' W 046°18'0 0.0
2017-Dec-03 02:27S 24°14' W 046°18'0 0.0
2017-Dec-03 01:57S 24°14' W 046°18'0 0.0
2017-Dec-03 01:30S 24°14' W 046°18'0 0.0
2017-Dec-03 00:57S 24°14' W 046°18'0 0.0
2017-Dec-03 00:27S 24°14' W 046°18'0 0.0
2017-Dec-03 00:00S 24°14' W 046°18'0 0.0
2017-Dec-02 23:27S 24°14' W 046°18'0 0.0
2017-Dec-02 22:57S 24°14' W 046°18'0 0.0
2017-Dec-02 22:30S 24°14' W 046°18'0 0.0
2017-Dec-02 22:00S 24°14' W 046°18'0 0.0
2017-Dec-02 21:30S 24°14' W 046°18'0 0.0
2017-Dec-02 20:51S 24°14' W 046°18'0 0.0
2017-Dec-02 20:30S 24°14' W 046°18'0 0.0
2017-Dec-02 20:00S 24°14' W 046°18'0 0.0
2017-Dec-02 19:30S 24°14' W 046°18'0 0.0
2017-Dec-02 18:57S 24°14' W 046°18'0 0.0
2017-Dec-02 18:30S 24°14' W 046°18'0 0.0
2017-Dec-02 18:00S 24°14' W 046°18'0 0.0
2017-Dec-02 17:27S 24°14' W 046°18'0 0.0
2017-Dec-02 17:00S 24°14' W 046°18'0 0.0
2017-Dec-02 16:30S 24°14' W 046°18'0 0.0
2017-Dec-02 15:57S 24°14' W 046°18'0 0.0
2017-Dec-02 15:27S 24°14' W 046°18'0 0.0
2017-Dec-02 15:00S 24°14' W 046°18'0 0.0
2017-Dec-02 14:09S 24°14' W 046°18'0 0.0
2017-Dec-02 13:57S 24°14' W 046°18'0 0.0
2017-Dec-02 13:27S 24°14' W 046°18'0 0.0
2017-Dec-02 12:57S 24°14' W 046°18'0 0.0
2017-Dec-02 12:30S 24°14' W 046°18'0 0.0
2017-Dec-02 12:00S 24°14' W 046°18'0 0.0
2017-Dec-02 11:30S 24°14' W 046°18'0 0.0
2017-Dec-02 11:00S 24°14' W 046°18'0 0.0
2017-Dec-02 10:27S 24°14' W 046°18'0 0.0
2017-Dec-02 09:51S 24°14' W 046°18'0 0.0
2017-Dec-02 09:30S 24°14' W 046°18'0 0.0
2017-Dec-02 09:00S 24°14' W 046°18'0 0.0
2017-Dec-02 08:30S 24°14' W 046°18'0 0.0
2017-Dec-02 07:57S 24°14' W 046°18'0 0.0
2017-Dec-02 07:30S 24°14' W 046°18'0 0.0
2017-Dec-02 06:57S 24°14' W 046°18'0 0.0
2017-Dec-02 06:27S 24°14' W 046°18'0 0.0
2017-Dec-02 05:54S 24°14' W 046°18'0 0.0
2017-Dec-02 05:27S 24°14' W 046°18'0 0.0
2017-Dec-02 04:57S 24°14' W 046°18'0 0.0
2017-Dec-02 04:27S 24°14' W 046°18'0 0.0
2017-Dec-02 04:00S 24°14' W 046°18'0 0.0
2017-Dec-02 03:30S 24°14' W 046°18'0 0.0
2017-Dec-02 03:00S 24°14' W 046°18'0 0.0
2017-Dec-02 02:30S 24°14' W 046°18'0 0.0
2017-Dec-02 01:54S 24°14' W 046°18'0 0.0
2017-Dec-02 01:24S 24°14' W 046°18'0 0.0
2017-Dec-02 00:57S 24°14' W 046°18'0 0.0
2017-Dec-02 00:30S 24°14' W 046°18'0 0.0
2017-Dec-02 00:00S 24°14' W 046°18'0 0.0
2017-Dec-01 23:30S 24°14' W 046°18'0 0.0
2017-Dec-01 23:00S 24°14' W 046°18'0 0.0
2017-Dec-01 22:30S 24°14' W 046°18'0 0.0
2017-Dec-01 21:57S 24°14' W 046°18'0 0.0
2017-Dec-01 21:21S 24°14' W 046°18'0 0.0
2017-Dec-01 20:51S 24°14' W 046°18'0 0.0
2017-Dec-01 20:27S 24°14' W 046°18'0 0.0
2017-Dec-01 20:00S 24°14' W 046°18'0 0.0
2017-Dec-01 19:27S 24°14' W 046°18'0 0.0
2017-Dec-01 18:57S 24°14' W 046°18'0 0.0
2017-Dec-01 18:30S 24°14' W 046°18'0 0.0
2017-Dec-01 17:57S 24°14' W 046°18'0 0.0
2017-Dec-01 17:30S 24°14' W 046°18'0 0.0
2017-Dec-01 16:57S 24°14' W 046°18'0 0.0
2017-Dec-01 16:27S 24°14' W 046°18'0 0.0
2017-Dec-01 15:57S 24°14' W 046°18'0 0.0
2017-Dec-01 15:15S 24°14' W 046°18'0 0.0
2017-Dec-01 15:00S 24°14' W 046°18'0 0.0
2017-Dec-01 14:21S 24°14' W 046°18'0 0.0
2017-Dec-01 13:57S 24°14' W 046°18'0 0.0
2017-Dec-01 13:27S 24°14' W 046°18'0 0.0
2017-Dec-01 13:00S 24°14' W 046°18'0 0.0
2017-Dec-01 12:27S 24°14' W 046°18'0 0.0
2017-Dec-01 12:00S 24°14' W 046°18'0 0.0
2017-Dec-01 11:27S 24°14' W 046°18'0 0.0
2017-Dec-01 10:57S 24°14' W 046°18'0 0.0
2017-Dec-01 10:30S 24°14' W 046°18'0 0.0
2017-Dec-01 09:57S 24°14' W 046°18'0 0.0
2017-Dec-01 09:27S 24°14' W 046°18'0 0.0
2017-Dec-01 08:57S 24°14' W 046°18'0 0.0
2017-Dec-01 08:30S 24°14' W 046°18'0 0.0
2017-Dec-01 07:57S 24°14' W 046°18'0 0.0
2017-Dec-01 07:30S 24°14' W 046°18'0 0.0
2017-Dec-01 06:57S 24°14' W 046°18'0 0.0
2017-Dec-01 06:30S 24°14' W 046°18'0 0.0
2017-Dec-01 05:54S 24°14' W 046°18'0 0.0
2017-Dec-01 05:27S 24°14' W 046°18'0 0.0
2017-Dec-01 05:00S 24°14' W 046°18'0 0.0
2017-Dec-01 04:27S 24°14' W 046°18'0 0.0
2017-Dec-01 04:00S 24°14' W 046°18'0 0.0
2017-Dec-01 03:27S 24°14' W 046°18'0 0.0
2017-Dec-01 03:00S 24°14' W 046°18'0 0.0
2017-Dec-01 02:27S 24°14' W 046°18'0 0.0
2017-Dec-01 01:57S 24°14' W 046°18'0 0.0
2017-Dec-01 01:30S 24°14' W 046°18'0 0.0
2017-Dec-01 00:57S 24°14' W 046°18'0 0.0
2017-Dec-01 00:27S 24°14' W 046°18'0 0.0
2017-Dec-01 00:00S 24°14' W 046°18'0 0.0
2017-Nov-30 23:24S 24°14' W 046°18'0 0.0
2017-Nov-30 23:00S 24°14' W 046°18'0 0.0
2017-Nov-30 22:21S 24°14' W 046°18'0 0.0
2017-Nov-30 22:00S 24°14' W 046°18'0 0.0
2017-Nov-30 21:30S 24°14' W 046°18'0 0.0
2017-Nov-30 20:57S 24°14' W 046°18'0 0.0
2017-Nov-30 20:15S 24°14' W 046°18'0 0.1
2017-Nov-30 19:57S 24°14' W 046°18'0 0.0
2017-Nov-30 19:30S 24°14' W 046°18'0 0.0
2017-Nov-30 19:00S 24°14' W 046°18'0 0.1
2017-Nov-30 18:27S 24°14' W 046°18'0 0.0
2017-Nov-30 17:57S 24°14' W 046°18'0 0.0
2017-Nov-30 17:27S 24°14' W 046°18'0 0.0
2017-Nov-30 16:57S 24°14' W 046°18'0 0.0
2017-Nov-30 16:30S 24°14' W 046°18'0 0.0
2017-Nov-30 15:57S 24°14' W 046°18'0 0.1
2017-Nov-30 15:27S 24°14' W 046°18'0 0.1
2017-Nov-30 15:00S 24°14' W 046°18'0 0.0
2017-Nov-30 14:24S 24°14' W 046°18'0 0.0
2017-Nov-30 13:57S 24°14' W 046°18'0 0.0
2017-Nov-30 13:27S 24°14' W 046°18'0 0.0
2017-Nov-30 12:57S 24°14' W 046°18'0 0.0
2017-Nov-30 12:21S 24°14' W 046°18'0 0.0
2017-Nov-30 11:57S 24°14' W 046°18'0 0.0
2017-Nov-30 11:30S 24°14' W 046°18'0 0.0
2017-Nov-30 11:00S 24°14' W 046°18'0 0.0
2017-Nov-30 10:27S 24°14' W 046°18'0 0.0
2017-Nov-30 09:57S 24°14' W 046°18'0 0.0
2017-Nov-30 09:30S 24°14' W 046°18'0 0.0
2017-Nov-30 09:00S 24°14' W 046°18'0 0.0
2017-Nov-30 08:27S 24°14' W 046°18'0 0.0
2017-Nov-30 08:00S 24°14' W 046°18'0 0.0
2017-Nov-30 07:15S 24°14' W 046°18'0 0.0
2017-Nov-30 07:00S 24°14' W 046°18'0 0.0
2017-Nov-30 06:30S 24°14' W 046°18'0 0.2
2017-Nov-30 05:58S 24°14' W 046°18'2 4.2
2017-Nov-30 05:30S 24°16' W 046°18'510.2
2017-Nov-30 05:00S 24°20' W 046°15'612.1
2017-Nov-30 04:30S 24°24' W 046°10'  

Dump ship's entire track history